sensor_id;sensor_type;location;lat;lon;timestamp;temperature;humidity
7936;DHT22;4013;49.744;8.118;2023-09-30T04:30:53;15.40;99.90
7936;DHT22;4013;49.744;8.118;2023-09-30T04:33:20;15.40;99.90
7936;DHT22;4013;49.744;8.118;2023-09-30T04:35:49;15.30;99.90
7936;DHT22;4013;49.744;8.118;2023-09-30T04:38:16;15.30;99.90
7936;DHT22;4013;49.744;8.118;2023-09-30T04:40:43;15.30;99.90
7936;DHT22;4013;49.744;8.118;2023-09-30T04:43:13;15.20;99.90
7936;DHT22;4013;49.744;8.118;2023-09-30T04:45:40;15.10;99.90
7936;DHT22;4013;49.744;8.118;2023-09-30T04:48:08;15.10;99.90
7936;DHT22;4013;49.744;8.118;2023-09-30T04:50:35;15.10;99.90
7936;DHT22;4013;49.744;8.118;2023-09-30T04:53:03;15.00;99.90
7936;DHT22;4013;49.744;8.118;2023-09-30T04:55:30;14.90;99.90
7936;DHT22;4013;49.744;8.118;2023-09-30T04:57:57;14.80;99.90
7936;DHT22;4013;49.744;8.118;2023-09-30T05:00:24;14.80;99.90
7936;DHT22;4013;49.744;8.118;2023-09-30T05:02:54;14.80;99.90
7936;DHT22;4013;49.744;8.118;2023-09-30T05:05:23;14.80;99.90
7936;DHT22;4013;49.744;8.118;2023-09-30T05:07:49;14.80;99.90
7936;DHT22;4013;49.744;8.118;2023-09-30T05:10:16;14.90;99.90
7936;DHT22;4013;49.744;8.118;2023-09-30T05:12:44;14.70;99.90
7936;DHT22;4013;49.744;8.118;2023-09-30T05:15:12;14.60;99.90
7936;DHT22;4013;49.744;8.118;2023-09-30T05:17:41;14.60;99.90
7936;DHT22;4013;49.744;8.118;2023-09-30T05:20:09;14.70;99.90
7936;DHT22;4013;49.744;8.118;2023-09-30T05:22:39;14.60;99.90
7936;DHT22;4013;49.744;8.118;2023-09-30T05:25:08;14.60;99.90
7936;DHT22;4013;49.744;8.118;2023-09-30T05:27:36;14.40;99.90
7936;DHT22;4013;49.744;8.118;2023-09-30T05:30:03;14.30;99.90
7936;DHT22;4013;49.744;8.118;2023-09-30T05:32:31;14.30;99.90
7936;DHT22;4013;49.744;8.118;2023-09-30T05:34:58;14.30;99.90
7936;DHT22;4013;49.744;8.118;2023-09-30T05:37:26;14.40;99.90
7936;DHT22;4013;49.744;8.118;2023-09-30T05:39:54;14.30;99.90
7936;DHT22;4013;49.744;8.118;2023-09-30T05:42:21;14.40;99.90
7936;DHT22;4013;49.744;8.118;2023-09-30T05:44:48;14.30;99.90
7936;DHT22;4013;49.744;8.118;2023-09-30T05:47:15;14.20;99.90
7936;DHT22;4013;49.744;8.118;2023-09-30T05:49:42;14.20;99.90
7936;DHT22;4013;49.744;8.118;2023-09-30T05:52:08;14.20;99.90
7936;DHT22;4013;49.744;8.118;2023-09-30T05:54:35;14.10;99.90
7936;DHT22;4013;49.744;8.118;2023-09-30T05:57:04;14.00;99.90
7936;DHT22;4013;49.744;8.118;2023-09-30T05:59:31;14.10;99.90
7936;DHT22;4013;49.744;8.118;2023-09-30T06:01:58;14.20;99.90
7936;DHT22;4013;49.744;8.118;2023-09-30T06:04:25;14.30;99.90
7936;DHT22;4013;49.744;8.118;2023-09-30T06:06:52;14.20;99.90
7936;DHT22;4013;49.744;8.118;2023-09-30T06:09:19;14.10;99.90
7936;DHT22;4013;49.744;8.118;2023-09-30T06:11:46;14.20;99.90
7936;DHT22;4013;49.744;8.118;2023-09-30T06:14:14;14.10;99.90
7936;DHT22;4013;49.744;8.118;2023-09-30T06:16:41;14.20;99.90
7936;DHT22;4013;49.744;8.118;2023-09-30T06:19:08;14.20;99.90
7936;DHT22;4013;49.744;8.118;2023-09-30T06:21:35;14.20;99.90
7936;DHT22;4013;49.744;8.118;2023-09-30T06:24:02;14.30;99.90
7936;DHT22;4013;49.744;8.118;2023-09-30T06:26:29;14.20;99.90
7936;DHT22;4013;49.744;8.118;2023-09-30T06:28:56;14.10;99.90
7936;DHT22;4013;49.744;8.118;2023-09-30T06:31:25;14.00;99.90
7936;DHT22;4013;49.744;8.118;2023-09-30T06:33:53;14.00;99.90
7936;DHT22;4013;49.744;8.118;2023-09-30T06:36:23;14.10;99.90
7936;DHT22;4013;49.744;8.118;2023-09-30T06:38:50;14.10;99.90
7936;DHT22;4013;49.744;8.118;2023-09-30T06:41:17;14.10;99.90
7936;DHT22;4013;49.744;8.118;2023-09-30T06:43:45;14.10;99.90
7936;DHT22;4013;49.744;8.118;2023-09-30T06:46:12;14.10;99.90
7936;DHT22;4013;49.744;8.118;2023-09-30T06:48:40;14.10;99.90
7936;DHT22;4013;49.744;8.118;2023-09-30T06:51:07;14.20;99.90
7936;DHT22;4013;49.744;8.118;2023-09-30T06:53:35;14.30;99.90
7936;DHT22;4013;49.744;8.118;2023-09-30T06:56:04;14.40;99.90
7936;DHT22;4013;49.744;8.118;2023-09-30T06:58:31;14.40;99.90
7936;DHT22;4013;49.744;8.118;2023-09-30T07:00:58;14.50;99.90
7936;DHT22;4013;49.744;8.118;2023-09-30T07:03:25;14.50;99.90
7936;DHT22;4013;49.744;8.118;2023-09-30T07:05:53;14.60;99.90
7936;DHT22;4013;49.744;8.118;2023-09-30T07:08:26;14.60;99.90
7936;DHT22;4013;49.744;8.118;2023-09-30T07:10:54;14.70;99.90
7936;DHT22;4013;49.744;8.118;2023-09-30T07:13:21;14.60;99.90
7936;DHT22;4013;49.744;8.118;2023-09-30T07:15:48;14.70;99.90
7936;DHT22;4013;49.744;8.118;2023-09-30T07:18:16;14.80;99.90
7936;DHT22;4013;49.744;8.118;2023-09-30T07:20:43;14.90;99.90
7936;DHT22;4013;49.744;8.118;2023-09-30T07:23:11;15.00;99.90
7936;DHT22;4013;49.744;8.118;2023-09-30T07:25:38;14.90;99.90
7936;DHT22;4013;49.744;8.118;2023-09-30T07:28:05;14.90;99.90
7936;DHT22;4013;49.744;8.118;2023-09-30T07:30:37;14.90;99.90
7936;DHT22;4013;49.744;8.118;2023-09-30T07:33:04;15.00;99.90
7936;DHT22;4013;49.744;8.118;2023-09-30T07:35:31;15.10;99.90
7936;DHT22;4013;49.744;8.118;2023-09-30T07:37:58;15.20;99.90
7936;DHT22;4013;49.744;8.118;2023-09-30T07:40:28;15.20;99.90
7936;DHT22;4013;49.744;8.118;2023-09-30T07:42:56;15.20;99.90
7936;DHT22;4013;49.744;8.118;2023-09-30T07:45:23;15.30;99.90
7936;DHT22;4013;49.744;8.118;2023-09-30T07:47:50;15.40;99.90
7936;DHT22;4013;49.744;8.118;2023-09-30T07:50:17;15.40;99.90
7936;DHT22;4013;49.744;8.118;2023-09-30T07:52:44;15.40;99.90
7936;DHT22;4013;49.744;8.118;2023-09-30T07:55:11;15.40;99.90
7936;DHT22;4013;49.744;8.118;2023-09-30T07:57:41;15.50;99.90
7936;DHT22;4013;49.744;8.118;2023-09-30T08:00:09;15.50;99.90
7936;DHT22;4013;49.744;8.118;2023-09-30T08:02:40;15.70;99.90
7936;DHT22;4013;49.744;8.118;2023-09-30T08:05:07;15.70;99.90
7936;DHT22;4013;49.744;8.118;2023-09-30T08:07:34;15.80;99.90
7936;DHT22;4013;49.744;8.118;2023-09-30T08:10:01;15.70;99.90
7936;DHT22;4013;49.744;8.118;2023-09-30T08:12:30;15.80;99.90
7936;DHT22;4013;49.744;8.118;2023-09-30T08:14:58;15.80;99.90
7936;DHT22;4013;49.744;8.118;2023-09-30T08:17:25;15.90;99.90
7936;DHT22;4013;49.744;8.118;2023-09-30T08:19:55;16.00;99.90
7936;DHT22;4013;49.744;8.118;2023-09-30T08:22:22;16.10;99.90
7936;DHT22;4013;49.744;8.118;2023-09-30T08:24:53;16.20;99.90
7936;DHT22;4013;49.744;8.118;2023-09-30T08:27:20;16.20;99.90
7936;DHT22;4013;49.744;8.118;2023-09-30T08:29:49;16.20;99.90
7936;DHT22;4013;49.744;8.118;2023-09-30T08:32:17;16.20;99.90
7936;DHT22;4013;49.744;8.118;2023-09-30T08:34:44;16.30;99.90
7936;DHT22;4013;49.744;8.118;2023-09-30T08:37:11;16.50;99.90
7936;DHT22;4013;49.744;8.118;2023-09-30T08:39:38;16.50;99.90
7936;DHT22;4013;49.744;8.118;2023-09-30T08:42:06;16.50;99.90
7936;DHT22;4013;49.744;8.118;2023-09-30T08:44:35;16.50;99.90
7936;DHT22;4013;49.744;8.118;2023-09-30T08:47:03;16.50;99.90
7936;DHT22;4013;49.744;8.118;2023-09-30T08:49:33;16.70;99.90
7936;DHT22;4013;49.744;8.118;2023-09-30T08:52:00;16.70;99.90
7936;DHT22;4013;49.744;8.118;2023-09-30T08:54:28;16.70;99.90
7936;DHT22;4013;49.744;8.118;2023-09-30T08:56:55;16.80;99.90
7936;DHT22;4013;49.744;8.118;2023-09-30T08:59:22;16.80;99.90
7936;DHT22;4013;49.744;8.118;2023-09-30T09:01:50;16.80;99.90
7936;DHT22;4013;49.744;8.118;2023-09-30T09:04:19;16.90;99.90
7936;DHT22;4013;49.744;8.118;2023-09-30T09:06:47;17.10;99.90
7936;DHT22;4013;49.744;8.118;2023-09-30T09:09:17;17.00;99.90
7936;DHT22;4013;49.744;8.118;2023-09-30T09:11:44;17.10;99.90
7936;DHT22;4013;49.744;8.118;2023-09-30T09:14:11;17.10;99.90
7936;DHT22;4013;49.744;8.118;2023-09-30T09:16:50;17.10;99.90
7936;DHT22;4013;49.744;8.118;2023-09-30T09:19:17;17.10;99.90
7936;DHT22;4013;49.744;8.118;2023-09-30T09:21:54;17.10;99.90
7936;DHT22;4013;49.744;8.118;2023-09-30T09:24:29;17.00;99.90
7936;DHT22;4013;49.744;8.118;2023-09-30T09:27:06;16.90;99.90
7936;DHT22;4013;49.744;8.118;2023-09-30T09:29:33;16.90;99.90
7936;DHT22;4013;49.744;8.118;2023-09-30T09:32:08;17.00;99.90
7936;DHT22;4013;49.744;8.118;2023-09-30T09:34:35;17.10;99.90
7936;DHT22;4013;49.744;8.118;2023-09-30T09:37:14;17.20;99.90
7936;DHT22;4013;49.744;8.118;2023-09-30T09:39:51;17.20;99.90
7936;DHT22;4013;49.744;8.118;2023-09-30T09:42:25;17.40;99.90
7936;DHT22;4013;49.744;8.118;2023-09-30T09:44:53;17.60;99.90
7936;DHT22;4013;49.744;8.118;2023-09-30T09:47:20;17.70;99.90
7936;DHT22;4013;49.744;8.118;2023-09-30T09:49:48;17.80;99.90
7936;DHT22;4013;49.744;8.118;2023-09-30T09:52:16;18.00;99.90
7936;DHT22;4013;49.744;8.118;2023-09-30T09:54:44;18.00;99.90
7936;DHT22;4013;49.744;8.118;2023-09-30T09:57:11;18.00;99.90
7936;DHT22;4013;49.744;8.118;2023-09-30T09:59:39;18.00;99.90
7936;DHT22;4013;49.744;8.118;2023-09-30T10:02:10;18.00;99.90
7936;DHT22;4013;49.744;8.118;2023-09-30T10:04:39;18.00;99.90
7936;DHT22;4013;49.744;8.118;2023-09-30T10:07:07;18.10;99.90
7936;DHT22;4013;49.744;8.118;2023-09-30T10:09:38;18.00;99.90
7936;DHT22;4013;49.744;8.118;2023-09-30T10:12:05;17.90;99.90
7936;DHT22;4013;49.744;8.118;2023-09-30T10:14:34;18.00;99.90
7936;DHT22;4013;49.744;8.118;2023-09-30T10:17:01;18.00;99.90
7936;DHT22;4013;49.744;8.118;2023-09-30T10:19:29;18.00;99.90
7936;DHT22;4013;49.744;8.118;2023-09-30T10:24:43;17.90;99.90
7936;DHT22;4013;49.744;8.118;2023-09-30T10:30:10;17.80;99.90
7936;DHT22;4013;49.744;8.118;2023-09-30T10:40:53;18.40;99.90
7936;DHT22;4013;49.744;8.118;2023-09-30T10:43:30;18.50;99.90
7936;DHT22;4013;49.744;8.118;2023-09-30T10:45:57;18.60;99.90
7936;DHT22;4013;49.744;8.118;2023-09-30T10:48:34;18.70;99.90
7936;DHT22;4013;49.744;8.118;2023-09-30T10:51:12;18.80;99.90
7936;DHT22;4013;49.744;8.118;2023-09-30T10:53:41;18.70;99.90
7936;DHT22;4013;49.744;8.118;2023-09-30T10:56:09;18.70;99.90
7936;DHT22;4013;49.744;8.118;2023-09-30T10:58:39;18.80;99.90
7936;DHT22;4013;49.744;8.118;2023-09-30T11:01:06;18.80;99.90
7936;DHT22;4013;49.744;8.118;2023-09-30T11:03:33;18.80;99.90
7936;DHT22;4013;49.744;8.118;2023-09-30T11:06:00;18.80;99.90
7936;DHT22;4013;49.744;8.118;2023-09-30T11:08:28;18.90;99.90
7936;DHT22;4013;49.744;8.118;2023-09-30T11:10:55;18.90;99.90
7936;DHT22;4013;49.744;8.118;2023-09-30T11:13:24;19.00;99.90
7936;DHT22;4013;49.744;8.118;2023-09-30T11:16:00;19.00;99.90
7936;DHT22;4013;49.744;8.118;2023-09-30T11:18:28;19.10;99.90
7936;DHT22;4013;49.744;8.118;2023-09-30T11:21:02;18.90;99.90
7936;DHT22;4013;49.744;8.118;2023-09-30T11:23:29;19.00;99.90
7936;DHT22;4013;49.744;8.118;2023-09-30T11:25:57;19.00;99.90
7936;DHT22;4013;49.744;8.118;2023-09-30T11:28:34;18.90;99.90
7936;DHT22;4013;49.744;8.118;2023-09-30T11:31:01;18.80;99.90
7936;DHT22;4013;49.744;8.118;2023-09-30T11:33:29;18.80;99.90
7936;DHT22;4013;49.744;8.118;2023-09-30T11:35:57;18.80;99.90
7936;DHT22;4013;49.744;8.118;2023-09-30T11:38:24;18.80;99.90
7936;DHT22;4013;49.744;8.118;2023-09-30T11:40:58;18.90;99.90
7936;DHT22;4013;49.744;8.118;2023-09-30T11:43:25;19.10;99.90
7936;DHT22;4013;49.744;8.118;2023-09-30T11:46:03;19.20;99.90
7936;DHT22;4013;49.744;8.118;2023-09-30T11:48:30;19.10;99.90
7936;DHT22;4013;49.744;8.118;2023-09-30T11:50:58;19.20;99.90
7936;DHT22;4013;49.744;8.118;2023-09-30T11:53:28;19.30;99.90
7936;DHT22;4013;49.744;8.118;2023-09-30T11:55:55;19.50;99.90
7936;DHT22;4013;49.744;8.118;2023-09-30T11:58:24;19.40;99.90
7936;DHT22;4013;49.744;8.118;2023-09-30T12:00:54;19.40;99.90
7936;DHT22;4013;49.744;8.118;2023-09-30T12:03:22;19.50;99.90
7936;DHT22;4013;49.744;8.118;2023-09-30T12:05:50;19.70;99.90
7936;DHT22;4013;49.744;8.118;2023-09-30T12:08:20;19.80;99.90
7936;DHT22;4013;49.744;8.118;2023-09-30T12:10:47;19.80;99.90
7936;DHT22;4013;49.744;8.118;2023-09-30T12:13:14;19.90;99.90
7936;DHT22;4013;49.744;8.118;2023-09-30T12:15:41;19.90;99.90
7936;DHT22;4013;49.744;8.118;2023-09-30T12:18:10;19.90;99.90
7936;DHT22;4013;49.744;8.118;2023-09-30T12:20:39;19.90;99.90
7936;DHT22;4013;49.744;8.118;2023-09-30T12:23:06;19.80;99.90
7936;DHT22;4013;49.744;8.118;2023-09-30T12:25:34;20.00;99.90
7936;DHT22;4013;49.744;8.118;2023-09-30T12:28:02;20.10;99.90
7936;DHT22;4013;49.744;8.118;2023-09-30T12:30:30;20.20;99.90
7936;DHT22;4013;49.744;8.118;2023-09-30T12:32:57;20.30;99.90
7936;DHT22;4013;49.744;8.118;2023-09-30T12:35:25;20.40;99.90
7936;DHT22;4013;49.744;8.118;2023-09-30T12:37:52;20.60;99.90
7936;DHT22;4013;49.744;8.118;2023-09-30T12:40:19;20.60;99.90
7936;DHT22;4013;49.744;8.118;2023-09-30T12:42:46;20.60;99.90
7936;DHT22;4013;49.744;8.118;2023-09-30T12:45:12;20.60;99.90
7936;DHT22;4013;49.744;8.118;2023-09-30T12:47:39;20.60;99.90
7936;DHT22;4013;49.744;8.118;2023-09-30T12:50:06;20.60;99.90
7936;DHT22;4013;49.744;8.118;2023-09-30T12:52:36;20.50;99.90
7936;DHT22;4013;49.744;8.118;2023-09-30T12:55:06;20.60;99.90
7936;DHT22;4013;49.744;8.118;2023-09-30T12:57:33;20.60;99.90
7936;DHT22;4013;49.744;8.118;2023-09-30T13:00:00;20.70;99.90
7936;DHT22;4013;49.744;8.118;2023-09-30T13:02:28;20.60;99.90
7936;DHT22;4013;49.744;8.118;2023-09-30T13:04:55;20.70;99.90
7936;DHT22;4013;49.744;8.118;2023-09-30T13:07:22;21.30;99.90
7936;DHT22;4013;49.744;8.118;2023-09-30T13:09:52;21.90;99.90
7936;DHT22;4013;49.744;8.118;2023-09-30T13:12:19;22.60;99.90
7936;DHT22;4013;49.744;8.118;2023-09-30T13:14:46;23.20;99.90
7936;DHT22;4013;49.744;8.118;2023-09-30T13:17:13;23.90;99.90
7936;DHT22;4013;49.744;8.118;2023-09-30T13:19:40;24.30;99.90
7936;DHT22;4013;49.744;8.118;2023-09-30T13:22:08;24.50;99.90
7936;DHT22;4013;49.744;8.118;2023-09-30T13:24:34;24.80;99.90
7936;DHT22;4013;49.744;8.118;2023-09-30T13:27:06;25.10;99.90
7936;DHT22;4013;49.744;8.118;2023-09-30T13:29:33;25.30;99.90
7936;DHT22;4013;49.744;8.118;2023-09-30T13:32:00;24.50;99.90
7936;DHT22;4013;49.744;8.118;2023-09-30T13:34:27;23.70;99.90
7936;DHT22;4013;49.744;8.118;2023-09-30T13:36:54;22.70;99.90
7936;DHT22;4013;49.744;8.118;2023-09-30T13:39:22;22.30;96.60
7936;DHT22;4013;49.744;8.118;2023-09-30T13:41:50;21.80;95.70
7936;DHT22;4013;49.744;8.118;2023-09-30T13:44:18;21.60;95.70
7936;DHT22;4013;49.744;8.118;2023-09-30T13:46:45;21.60;95.90
7936;DHT22;4013;49.744;8.118;2023-09-30T13:49:12;21.40;99.10
7936;DHT22;4013;49.744;8.118;2023-09-30T13:51:39;21.30;99.90
7936;DHT22;4013;49.744;8.118;2023-09-30T13:54:06;21.20;99.90
7936;DHT22;4013;49.744;8.118;2023-09-30T13:56:33;21.20;99.90
7936;DHT22;4013;49.744;8.118;2023-09-30T13:59:00;20.90;99.90
7936;DHT22;4013;49.744;8.118;2023-09-30T14:01:29;20.90;99.90
7936;DHT22;4013;49.744;8.118;2023-09-30T14:03:56;21.10;99.90
7936;DHT22;4013;49.744;8.118;2023-09-30T14:06:23;21.30;99.90
7936;DHT22;4013;49.744;8.118;2023-09-30T14:08:50;21.60;99.90
7936;DHT22;4013;49.744;8.118;2023-09-30T14:11:18;21.60;99.90
7936;DHT22;4013;49.744;8.118;2023-09-30T14:13:45;21.50;99.90
7936;DHT22;4013;49.744;8.118;2023-09-30T14:16:12;21.40;99.90
7936;DHT22;4013;49.744;8.118;2023-09-30T14:18:40;21.00;99.90
7936;DHT22;4013;49.744;8.118;2023-09-30T14:21:08;21.00;99.90
7936;DHT22;4013;49.744;8.118;2023-09-30T14:23:35;20.90;99.90
7936;DHT22;4013;49.744;8.118;2023-09-30T14:26:02;21.00;99.90
7936;DHT22;4013;49.744;8.118;2023-09-30T14:28:36;21.20;99.90
7936;DHT22;4013;49.744;8.118;2023-09-30T14:31:03;21.40;99.90
7936;DHT22;4013;49.744;8.118;2023-09-30T14:33:30;21.60;99.90
7936;DHT22;4013;49.744;8.118;2023-09-30T14:35:58;21.40;99.90
7936;DHT22;4013;49.744;8.118;2023-09-30T14:38:25;21.10;99.90
7936;DHT22;4013;49.744;8.118;2023-09-30T14:40:52;21.00;99.90
7936;DHT22;4013;49.744;8.118;2023-09-30T14:43:19;20.90;99.90
7936;DHT22;4013;49.744;8.118;2023-09-30T14:45:45;20.90;99.90
7936;DHT22;4013;49.744;8.118;2023-09-30T14:48:12;20.80;99.90
7936;DHT22;4013;49.744;8.118;2023-09-30T14:50:47;20.70;99.90
7936;DHT22;4013;49.744;8.118;2023-09-30T14:53:16;20.60;99.90
7936;DHT22;4013;49.744;8.118;2023-09-30T14:55:42;20.70;99.90
7936;DHT22;4013;49.744;8.118;2023-09-30T14:58:10;20.60;99.90
7936;DHT22;4013;49.744;8.118;2023-09-30T15:00:37;20.60;99.90
7936;DHT22;4013;49.744;8.118;2023-09-30T15:03:04;20.60;99.90
7936;DHT22;4013;49.744;8.118;2023-09-30T15:05:31;20.60;99.90
7936;DHT22;4013;49.744;8.118;2023-09-30T15:08:00;20.60;99.90
7936;DHT22;4013;49.744;8.118;2023-09-30T15:10:29;20.60;99.90
7936;DHT22;4013;49.744;8.118;2023-09-30T15:12:55;20.70;99.90
7936;DHT22;4013;49.744;8.118;2023-09-30T15:15:23;20.70;99.90
7936;DHT22;4013;49.744;8.118;2023-09-30T15:17:50;20.60;99.90
7936;DHT22;4013;49.744;8.118;2023-09-30T15:20:18;20.50;99.90
7936;DHT22;4013;49.744;8.118;2023-09-30T15:22:46;20.50;99.90
7936;DHT22;4013;49.744;8.118;2023-09-30T15:25:12;20.40;99.90
7936;DHT22;4013;49.744;8.118;2023-09-30T15:27:42;20.30;99.90
7936;DHT22;4013;49.744;8.118;2023-09-30T15:30:10;20.30;99.90
7936;DHT22;4013;49.744;8.118;2023-09-30T15:32:38;20.30;99.90
7936;DHT22;4013;49.744;8.118;2023-09-30T15:35:05;20.30;99.90
7936;DHT22;4013;49.744;8.118;2023-09-30T15:37:33;20.30;99.90
7936;DHT22;4013;49.744;8.118;2023-09-30T15:40:00;20.20;99.90
7936;DHT22;4013;49.744;8.118;2023-09-30T15:42:27;20.10;99.90
7936;DHT22;4013;49.744;8.118;2023-09-30T15:44:58;20.00;99.90
7936;DHT22;4013;49.744;8.118;2023-09-30T15:47:25;20.10;99.90
7936;DHT22;4013;49.744;8.118;2023-09-30T15:49:53;20.10;99.90
7936;DHT22;4013;49.744;8.118;2023-09-30T15:52:20;20.00;99.90
7936;DHT22;4013;49.744;8.118;2023-09-30T15:54:47;20.00;99.90
7936;DHT22;4013;49.744;8.118;2023-09-30T15:57:14;20.00;99.90
7936;DHT22;4013;49.744;8.118;2023-09-30T15:59:40;19.90;99.90
7936;DHT22;4013;49.744;8.118;2023-09-30T16:02:10;19.90;99.90
7936;DHT22;4013;49.744;8.118;2023-09-30T16:04:37;19.90;99.90
7936;DHT22;4013;49.744;8.118;2023-09-30T16:07:04;19.90;99.90
7936;DHT22;4013;49.744;8.118;2023-09-30T16:09:31;19.80;99.90
7936;DHT22;4013;49.744;8.118;2023-09-30T16:11:59;19.80;99.90
7936;DHT22;4013;49.744;8.118;2023-09-30T16:14:26;19.80;99.90
7936;DHT22;4013;49.744;8.118;2023-09-30T16:16:53;19.80;99.90
7936;DHT22;4013;49.744;8.118;2023-09-30T16:19:23;19.80;99.90
7936;DHT22;4013;49.744;8.118;2023-09-30T16:21:50;19.80;99.90
7936;DHT22;4013;49.744;8.118;2023-09-30T16:24:17;19.70;99.90
7936;DHT22;4013;49.744;8.118;2023-09-30T16:26:44;19.70;99.90
7936;DHT22;4013;49.744;8.118;2023-09-30T16:29:10;19.60;99.90
7936;DHT22;4013;49.744;8.118;2023-09-30T16:31:37;19.70;99.90
7936;DHT22;4013;49.744;8.118;2023-09-30T16:34:04;19.60;99.90
7936;DHT22;4013;49.744;8.118;2023-09-30T16:36:33;19.60;99.90
7936;DHT22;4013;49.744;8.118;2023-09-30T16:39:01;19.60;99.90
7936;DHT22;4013;49.744;8.118;2023-09-30T16:41:28;19.50;99.90
7936;DHT22;4013;49.744;8.118;2023-09-30T16:43:56;19.50;99.90
7936;DHT22;4013;49.744;8.118;2023-09-30T16:46:23;19.50;99.90
7936;DHT22;4013;49.744;8.118;2023-09-30T16:48:50;19.40;99.90
7936;DHT22;4013;49.744;8.118;2023-09-30T16:51:16;19.30;99.90
7936;DHT22;4013;49.744;8.118;2023-09-30T16:53:46;19.30;99.90
7936;DHT22;4013;49.744;8.118;2023-09-30T16:56:13;19.30;99.90
7936;DHT22;4013;49.744;8.118;2023-09-30T16:58:41;19.30;99.90
7936;DHT22;4013;49.744;8.118;2023-09-30T17:01:10;19.20;99.90
7936;DHT22;4013;49.744;8.118;2023-09-30T17:03:38;19.20;99.90
7936;DHT22;4013;49.744;8.118;2023-09-30T17:06:06;19.10;99.90
7936;DHT22;4013;49.744;8.118;2023-09-30T17:08:33;19.10;99.90
7936;DHT22;4013;49.744;8.118;2023-09-30T17:11:02;19.00;99.90
7936;DHT22;4013;49.744;8.118;2023-09-30T17:13:29;18.90;99.90
7936;DHT22;4013;49.744;8.118;2023-09-30T17:15:56;18.90;99.90
7936;DHT22;4013;49.744;8.118;2023-09-30T17:18:23;18.80;99.90
7936;DHT22;4013;49.744;8.118;2023-09-30T17:20:51;18.70;99.90
7936;DHT22;4013;49.744;8.118;2023-09-30T17:23:20;18.50;99.90
7936;DHT22;4013;49.744;8.118;2023-09-30T17:25:47;18.40;99.90
7936;DHT22;4013;49.744;8.118;2023-09-30T17:28:16;18.40;99.90
7936;DHT22;4013;49.744;8.118;2023-09-30T17:30:42;18.30;99.90
7936;DHT22;4013;49.744;8.118;2023-09-30T17:33:09;18.30;99.90
7936;DHT22;4013;49.744;8.118;2023-09-30T17:35:37;18.30;99.90
7936;DHT22;4013;49.744;8.118;2023-09-30T17:38:03;18.20;99.90
7936;DHT22;4013;49.744;8.118;2023-09-30T17:40:31;18.20;99.90
7936;DHT22;4013;49.744;8.118;2023-09-30T17:42:59;18.10;99.90
7936;DHT22;4013;49.744;8.118;2023-09-30T17:45:27;18.00;99.90
7936;DHT22;4013;49.744;8.118;2023-09-30T17:47:54;18.00;99.90
7936;DHT22;4013;49.744;8.118;2023-09-30T17:50:21;17.90;99.90
7936;DHT22;4013;49.744;8.118;2023-09-30T17:52:47;17.90;99.90
7936;DHT22;4013;49.744;8.118;2023-09-30T17:55:14;17.90;99.90
7936;DHT22;4013;49.744;8.118;2023-09-30T17:57:41;17.90;99.90
7936;DHT22;4013;49.744;8.118;2023-09-30T18:00:08;17.90;99.90
7936;DHT22;4013;49.744;8.118;2023-09-30T18:02:39;17.80;99.90
7936;DHT22;4013;49.744;8.118;2023-09-30T18:05:06;17.70;99.90
7936;DHT22;4013;49.744;8.118;2023-09-30T18:07:33;17.60;99.90
7936;DHT22;4013;49.744;8.118;2023-09-30T18:10:00;17.60;99.90
7936;DHT22;4013;49.744;8.118;2023-09-30T18:12:28;17.50;99.90
7936;DHT22;4013;49.744;8.118;2023-09-30T18:14:54;17.40;99.90
7936;DHT22;4013;49.744;8.118;2023-09-30T18:17:21;17.40;99.90
7936;DHT22;4013;49.744;8.118;2023-09-30T18:19:50;17.40;99.90
7936;DHT22;4013;49.744;8.118;2023-09-30T18:22:17;17.30;99.90
7936;DHT22;4013;49.744;8.118;2023-09-30T18:24:44;17.30;99.90
7936;DHT22;4013;49.744;8.118;2023-09-30T18:27:11;17.30;99.90
7936;DHT22;4013;49.744;8.118;2023-09-30T18:29:38;17.30;99.90
7936;DHT22;4013;49.744;8.118;2023-09-30T18:32:06;17.20;99.90
7936;DHT22;4013;49.744;8.118;2023-09-30T18:34:33;17.00;99.90
7936;DHT22;4013;49.744;8.118;2023-09-30T18:37:01;16.90;99.90
7936;DHT22;4013;49.744;8.118;2023-09-30T18:39:28;16.90;99.90
7936;DHT22;4013;49.744;8.118;2023-09-30T18:41:56;17.00;99.90
7936;DHT22;4013;49.744;8.118;2023-09-30T18:44:23;16.90;99.90
7936;DHT22;4013;49.744;8.118;2023-09-30T18:46:50;16.90;99.90
7936;DHT22;4013;49.744;8.118;2023-09-30T18:49:16;16.80;99.90
7936;DHT22;4013;49.744;8.118;2023-09-30T18:51:44;16.70;99.90
7936;DHT22;4013;49.744;8.118;2023-09-30T18:54:12;16.60;99.90
7936;DHT22;4013;49.744;8.118;2023-09-30T18:56:40;16.60;99.90
7936;DHT22;4013;49.744;8.118;2023-09-30T18:59:07;16.60;99.90
7936;DHT22;4013;49.744;8.118;2023-09-30T19:01:34;16.60;99.90
7936;DHT22;4013;49.744;8.118;2023-09-30T19:04:02;16.40;99.90
7936;DHT22;4013;49.744;8.118;2023-09-30T19:06:29;16.30;99.90
7936;DHT22;4013;49.744;8.118;2023-09-30T19:08:56;16.10;99.90
7936;DHT22;4013;49.744;8.118;2023-09-30T19:11:25;15.90;99.90
7936;DHT22;4013;49.744;8.118;2023-09-30T19:13:53;15.80;99.90
7936;DHT22;4013;49.744;8.118;2023-09-30T19:16:20;15.90;99.90
7936;DHT22;4013;49.744;8.118;2023-09-30T19:18:46;15.80;99.90
7936;DHT22;4013;49.744;8.118;2023-09-30T19:21:13;15.70;99.90
7936;DHT22;4013;49.744;8.118;2023-09-30T19:23:40;15.60;99.90
7936;DHT22;4013;49.744;8.118;2023-09-30T19:26:10;15.70;99.90
7936;DHT22;4013;49.744;8.118;2023-09-30T19:28:38;15.60;99.90
7936;DHT22;4013;49.744;8.118;2023-09-30T19:31:05;15.50;99.90
7936;DHT22;4013;49.744;8.118;2023-09-30T19:33:33;15.40;99.90
7936;DHT22;4013;49.744;8.118;2023-09-30T19:36:05;15.30;99.90
7936;DHT22;4013;49.744;8.118;2023-09-30T19:38:32;15.20;99.90
7936;DHT22;4013;49.744;8.118;2023-09-30T19:40:59;15.20;99.90
7936;DHT22;4013;49.744;8.118;2023-09-30T19:43:26;15.20;99.90
7936;DHT22;4013;49.744;8.118;2023-09-30T19:45:59;15.20;99.90
7936;DHT22;4013;49.744;8.118;2023-09-30T19:48:26;15.20;99.90
7936;DHT22;4013;49.744;8.118;2023-09-30T19:50:54;15.20;99.90
7936;DHT22;4013;49.744;8.118;2023-09-30T19:53:21;15.10;99.90
7936;DHT22;4013;49.744;8.118;2023-09-30T19:55:48;15.00;99.90
7936;DHT22;4013;49.744;8.118;2023-09-30T19:58:16;15.00;99.90
7936;DHT22;4013;49.744;8.118;2023-09-30T20:00:43;15.10;99.90
7936;DHT22;4013;49.744;8.118;2023-09-30T20:03:13;15.10;99.90
7936;DHT22;4013;49.744;8.118;2023-09-30T20:05:40;15.00;99.90
7936;DHT22;4013;49.744;8.118;2023-09-30T20:08:07;14.90;99.90
7936;DHT22;4013;49.744;8.118;2023-09-30T20:10:34;14.90;99.90
7936;DHT22;4013;49.744;8.118;2023-09-30T20:13:02;14.80;99.90
7936;DHT22;4013;49.744;8.118;2023-09-30T20:15:33;14.70;99.90
7936;DHT22;4013;49.744;8.118;2023-09-30T20:18:00;14.60;99.90
7936;DHT22;4013;49.744;8.118;2023-09-30T20:20:28;14.60;99.90
7936;DHT22;4013;49.744;8.118;2023-09-30T20:22:55;14.50;99.90
7936;DHT22;4013;49.744;8.118;2023-09-30T20:25:22;14.50;99.90
7936;DHT22;4013;49.744;8.118;2023-09-30T20:27:49;14.60;99.90
7936;DHT22;4013;49.744;8.118;2023-09-30T20:30:16;14.50;99.90
7936;DHT22;4013;49.744;8.118;2023-09-30T20:32:43;14.50;99.90
7936;DHT22;4013;49.744;8.118;2023-09-30T20:35:11;14.40;99.90
7936;DHT22;4013;49.744;8.118;2023-09-30T20:37:41;14.40;99.90
7936;DHT22;4013;49.744;8.118;2023-09-30T20:40:09;14.30;99.90
7936;DHT22;4013;49.744;8.118;2023-09-30T20:42:39;14.20;99.90
7936;DHT22;4013;49.744;8.118;2023-09-30T20:45:06;14.10;99.90
7936;DHT22;4013;49.744;8.118;2023-09-30T20:47:33;14.10;99.90
7936;DHT22;4013;49.744;8.118;2023-09-30T20:50:00;14.00;99.90